sensor_id;sensor_type;location;lat;lon;timestamp;pressure;altitude;pressure_sealevel;temperature;humidity
46111;BME280;31849;55.992;37.252;2022-11-18T00:03:22;98452.47;;;-5.39;59.83
46111;BME280;31849;55.992;37.252;2022-11-18T00:08:26;98441.22;;;-5.46;60.87
46111;BME280;31849;55.992;37.252;2022-11-18T00:13:31;98429.31;;;-5.47;60.33
46111;BME280;31849;55.992;37.252;2022-11-18T00:18:51;98433.41;;;-5.51;60.54
46111;BME280;31849;55.992;37.252;2022-11-18T00:23:54;98425.50;;;-5.57;60.51
46111;BME280;31849;55.992;37.252;2022-11-18T00:28:59;98418.47;;;-5.64;59.85
46111;BME280;31849;55.992;37.252;2022-11-18T00:34:03;98417.63;;;-5.83;60.29
46111;BME280;31849;55.992;37.252;2022-11-18T00:39:07;98405.81;;;-5.82;60.12
46111;BME280;31849;55.992;37.252;2022-11-18T00:44:12;98412.38;;;-5.68;60.33
46111;BME280;31849;55.992;37.252;2022-11-18T00:49:15;98415.19;;;-5.61;60.48
46111;BME280;31849;55.992;37.252;2022-11-18T00:54:19;98412.31;;;-5.69;60.39
46111;BME280;31849;55.992;37.252;2022-11-18T00:59:24;98404.53;;;-5.54;60.53
46111;BME280;31849;55.992;37.252;2022-11-18T01:04:27;98412.13;;;-5.54;60.34
46111;BME280;31849;55.992;37.252;2022-11-18T01:09:31;98395.81;;;-5.61;60.47
46111;BME280;31849;55.992;37.252;2022-11-18T01:14:36;98389.25;;;-5.56;60.33
46111;BME280;31849;55.992;37.252;2022-11-18T01:19:39;98395.94;;;-5.58;60.13
46111;BME280;31849;55.992;37.252;2022-11-18T01:24:43;98388.88;;;-5.65;60.73
46111;BME280;31849;55.992;37.252;2022-11-18T01:29:47;98392.38;;;-5.61;61.00
46111;BME280;31849;55.992;37.252;2022-11-18T01:34:51;98390.59;;;-5.64;60.80
46111;BME280;31849;55.992;37.252;2022-11-18T01:39:54;98376.53;;;-5.57;60.65
46111;BME280;31849;55.992;37.252;2022-11-18T01:45:03;98374.13;;;-5.54;60.20
46111;BME280;31849;55.992;37.252;2022-11-18T01:50:12;98384.78;;;-5.61;60.44
46111;BME280;31849;55.992;37.252;2022-11-18T01:55:19;98370.53;;;-5.59;60.06
46111;BME280;31849;55.992;37.252;2022-11-18T02:00:26;98374.84;;;-5.57;60.38
46111;BME280;31849;55.992;37.252;2022-11-18T02:05:30;98383.53;;;-5.52;60.51
46111;BME280;31849;55.992;37.252;2022-11-18T02:10:35;98365.53;;;-5.58;60.01
46111;BME280;31849;55.992;37.252;2022-11-18T02:15:46;98364.72;;;-5.57;60.02
46111;BME280;31849;55.992;37.252;2022-11-18T02:20:55;98359.53;;;-5.60;59.67
46111;BME280;31849;55.992;37.252;2022-11-18T02:26:30;98359.66;;;-5.57;59.63
46111;BME280;31849;55.992;37.252;2022-11-18T02:31:46;98353.22;;;-5.70;60.25
46111;BME280;31849;55.992;37.252;2022-11-18T02:36:56;98345.81;;;-5.65;59.63
46111;BME280;31849;55.992;37.252;2022-11-18T02:42:03;98360.88;;;-5.68;59.56
46111;BME280;31849;55.992;37.252;2022-11-18T02:47:12;98359.31;;;-5.65;59.46
46111;BME280;31849;55.992;37.252;2022-11-18T02:52:18;98354.41;;;-5.61;60.06
46111;BME280;31849;55.992;37.252;2022-11-18T02:57:24;98344.34;;;-5.60;60.26
46111;BME280;31849;55.992;37.252;2022-11-18T03:02:39;98303.38;;;-5.90;59.74
46111;BME280;31849;55.992;37.252;2022-11-18T03:07:42;98345.88;;;-5.63;60.00
46111;BME280;31849;55.992;37.252;2022-11-18T03:12:53;98345.88;;;-5.63;60.85
46111;BME280;31849;55.992;37.252;2022-11-18T03:18:13;98346.94;;;-5.58;59.70
46111;BME280;31849;55.992;37.252;2022-11-18T03:23:23;98341.47;;;-5.48;59.83
46111;BME280;31849;55.992;37.252;2022-11-18T03:28:31;98342.41;;;-5.46;59.69
46111;BME280;31849;55.992;37.252;2022-11-18T03:33:41;98331.94;;;-5.54;60.10
46111;BME280;31849;55.992;37.252;2022-11-18T03:38:47;98336.47;;;-5.47;59.68
46111;BME280;31849;55.992;37.252;2022-11-18T03:43:56;98332.81;;;-5.53;59.75
46111;BME280;31849;55.992;37.252;2022-11-18T03:49:04;98324.50;;;-5.51;59.61
46111;BME280;31849;55.992;37.252;2022-11-18T03:54:13;98327.34;;;-5.43;60.29
46111;BME280;31849;55.992;37.252;2022-11-18T03:59:20;98316.88;;;-5.51;59.59
46111;BME280;31849;55.992;37.252;2022-11-18T04:04:27;98326.25;;;-5.48;60.04
46111;BME280;31849;55.992;37.252;2022-11-18T04:09:35;98326.88;;;-5.54;59.78
46111;BME280;31849;55.992;37.252;2022-11-18T04:14:41;98321.66;;;-5.57;60.21
46111;BME280;31849;55.992;37.252;2022-11-18T04:19:46;98309.97;;;-5.55;60.02
46111;BME280;31849;55.992;37.252;2022-11-18T04:24:50;98321.13;;;-5.50;60.43
46111;BME280;31849;55.992;37.252;2022-11-18T04:29:53;98328.00;;;-5.47;60.33
46111;BME280;31849;55.992;37.252;2022-11-18T04:34:58;98311.94;;;-5.48;60.47
46111;BME280;31849;55.992;37.252;2022-11-18T04:40:01;98311.94;;;-5.48;60.38
46111;BME280;31849;55.992;37.252;2022-11-18T04:45:06;98320.75;;;-5.59;59.89
46111;BME280;31849;55.992;37.252;2022-11-18T04:50:11;98319.97;;;-5.58;60.46
46111;BME280;31849;55.992;37.252;2022-11-18T04:55:14;98316.72;;;-5.54;59.96
46111;BME280;31849;55.992;37.252;2022-11-18T05:00:18;98321.97;;;-5.51;59.73
46111;BME280;31849;55.992;37.252;2022-11-18T05:05:24;98325.41;;;-5.49;60.37
46111;BME280;31849;55.992;37.252;2022-11-18T05:10:28;98325.53;;;-5.45;59.58
46111;BME280;31849;55.992;37.252;2022-11-18T05:15:31;98329.94;;;-5.41;60.49
46111;BME280;31849;55.992;37.252;2022-11-18T05:20:36;98326.25;;;-5.48;59.90
46111;BME280;31849;55.992;37.252;2022-11-18T05:25:42;98328.41;;;-5.57;59.98
46111;BME280;31849;55.992;37.252;2022-11-18T05:30:46;98317.50;;;-5.56;60.33
46111;BME280;31849;55.992;37.252;2022-11-18T05:35:50;98332.72;;;-5.35;60.47
46111;BME280;31849;55.992;37.252;2022-11-18T05:40:56;98323.56;;;-5.32;59.46
46111;BME280;31849;55.992;37.252;2022-11-18T05:46:00;98322.19;;;-5.25;59.89
46111;BME280;31849;55.992;37.252;2022-11-18T05:51:05;98321.56;;;-5.19;59.78
46111;BME280;31849;55.992;37.252;2022-11-18T05:56:15;98329.34;;;-5.15;59.19
46111;BME280;31849;55.992;37.252;2022-11-18T06:01:23;98328.63;;;-5.12;59.36
46111;BME280;31849;55.992;37.252;2022-11-18T06:06:29;98327.69;;;-5.14;59.25
46111;BME280;31849;55.992;37.252;2022-11-18T06:11:37;98332.16;;;-5.08;59.08
46111;BME280;31849;55.992;37.252;2022-11-18T06:16:46;98337.63;;;-4.98;59.50
46111;BME280;31849;55.992;37.252;2022-11-18T06:21:53;98343.28;;;-4.84;59.15
46111;BME280;31849;55.992;37.252;2022-11-18T06:26:57;98327.13;;;-4.86;59.16
46111;BME280;31849;55.992;37.252;2022-11-18T06:32:01;98324.47;;;-4.89;58.37
46111;BME280;31849;55.992;37.252;2022-11-18T06:37:13;98337.34;;;-4.84;58.53
46111;BME280;31849;55.992;37.252;2022-11-18T06:42:16;98330.78;;;-4.79;58.22
46111;BME280;31849;55.992;37.252;2022-11-18T06:47:34;98328.19;;;-4.81;58.14
46111;BME280;31849;55.992;37.252;2022-11-18T06:52:38;98318.97;;;-4.79;58.11
46111;BME280;31849;55.992;37.252;2022-11-18T06:57:41;98327.16;;;-4.63;57.86
46111;BME280;31849;55.992;37.252;2022-11-18T07:02:45;98333.88;;;-4.65;58.05
46111;BME280;31849;55.992;37.252;2022-11-18T07:07:50;98326.88;;;-4.50;58.18
46111;BME280;31849;55.992;37.252;2022-11-18T07:12:53;98323.06;;;-4.38;57.88
46111;BME280;31849;55.992;37.252;2022-11-18T07:17:56;98325.47;;;-4.19;57.37
46111;BME280;31849;55.992;37.252;2022-11-18T07:23:01;98317.88;;;-3.96;56.64
46111;BME280;31849;55.992;37.252;2022-11-18T07:28:04;98329.38;;;-3.82;56.57
46111;BME280;31849;55.992;37.252;2022-11-18T07:33:08;98337.41;;;-3.94;56.14
46111;BME280;31849;55.992;37.252;2022-11-18T07:38:12;98327.03;;;-4.00;56.27
46111;BME280;31849;55.992;37.252;2022-11-18T07:43:16;98328.47;;;-3.84;55.98
46111;BME280;31849;55.992;37.252;2022-11-18T07:48:19;98328.06;;;-3.72;55.96
46111;BME280;31849;55.992;37.252;2022-11-18T07:53:24;98336.69;;;-3.67;56.51
46111;BME280;31849;55.992;37.252;2022-11-18T07:58:27;98348.69;;;-3.87;55.80
46111;BME280;31849;55.992;37.252;2022-11-18T08:03:31;98337.59;;;-3.89;56.17
46111;BME280;31849;55.992;37.252;2022-11-18T08:08:36;98343.56;;;-3.64;56.23
46111;BME280;31849;55.992;37.252;2022-11-18T08:13:39;98332.50;;;-3.66;55.46
46111;BME280;31849;55.992;37.252;2022-11-18T08:18:43;98335.72;;;-3.46;55.65
46111;BME280;31849;55.992;37.252;2022-11-18T08:23:50;98335.97;;;-3.39;56.03
46111;BME280;31849;55.992;37.252;2022-11-18T08:28:54;98337.56;;;-3.42;55.59
46111;BME280;31849;55.992;37.252;2022-11-18T08:33:59;98337.03;;;-3.33;55.26
46111;BME280;31849;55.992;37.252;2022-11-18T08:39:06;98336.56;;;-3.22;54.74
46111;BME280;31849;55.992;37.252;2022-11-18T08:44:11;98329.09;;;-3.17;54.89
46111;BME280;31849;55.992;37.252;2022-11-18T08:49:15;98332.28;;;-3.23;54.99
46111;BME280;31849;55.992;37.252;2022-11-18T08:54:20;98353.94;;;-3.10;54.97
46111;BME280;31849;55.992;37.252;2022-11-18T08:59:23;98353.44;;;-2.99;54.77
46111;BME280;31849;55.992;37.252;2022-11-18T09:04:27;98347.16;;;-3.09;54.65
46111;BME280;31849;55.992;37.252;2022-11-18T09:09:32;98337.09;;;-3.06;54.30
46111;BME280;31849;55.992;37.252;2022-11-18T09:14:36;98344.47;;;-3.14;54.73
46111;BME280;31849;55.992;37.252;2022-11-18T09:19:59;98345.47;;;-3.09;54.63
46111;BME280;31849;55.992;37.252;2022-11-18T09:25:06;98346.69;;;-3.23;54.95
46111;BME280;31849;55.992;37.252;2022-11-18T09:30:10;98349.03;;;-3.29;54.85
46111;BME280;31849;55.992;37.252;2022-11-18T09:35:14;98355.47;;;-3.13;54.94
46111;BME280;31849;55.992;37.252;2022-11-18T09:40:19;98354.78;;;-3.09;54.80
46111;BME280;31849;55.992;37.252;2022-11-18T09:45:24;98359.13;;;-3.07;54.47
46111;BME280;31849;55.992;37.252;2022-11-18T09:50:30;98363.91;;;-3.16;55.17
46111;BME280;31849;55.992;37.252;2022-11-18T09:55:53;98361.41;;;-3.14;55.29
46111;BME280;31849;55.992;37.252;2022-11-18T10:00:57;98351.06;;;-3.19;55.56
46111;BME280;31849;55.992;37.252;2022-11-18T10:06:04;98359.66;;;-3.15;55.33
46111;BME280;31849;55.992;37.252;2022-11-18T10:11:23;98357.94;;;-3.16;55.10
46111;BME280;31849;55.992;37.252;2022-11-18T10:16:35;98359.75;;;-3.12;55.73
46111;BME280;31849;55.992;37.252;2022-11-18T10:21:51;98360.34;;;-2.95;55.56
46111;BME280;31849;55.992;37.252;2022-11-18T10:26:59;98352.63;;;-2.97;55.09
46111;BME280;31849;55.992;37.252;2022-11-18T10:32:05;98368.09;;;-2.92;55.18
46111;BME280;31849;55.992;37.252;2022-11-18T10:37:21;98374.16;;;-2.87;54.88
46111;BME280;31849;55.992;37.252;2022-11-18T10:42:46;98380.44;;;-2.77;54.77
46111;BME280;31849;55.992;37.252;2022-11-18T10:47:56;98384.66;;;-3.04;55.08
46111;BME280;31849;55.992;37.252;2022-11-18T10:53:01;98395.47;;;-3.09;55.63
46111;BME280;31849;55.992;37.252;2022-11-18T10:58:09;98378.91;;;-2.98;55.23
46111;BME280;31849;55.992;37.252;2022-11-18T11:03:22;98397.13;;;-2.86;55.01
46111;BME280;31849;55.992;37.252;2022-11-18T11:08:26;98391.81;;;-2.92;55.55
46111;BME280;31849;55.992;37.252;2022-11-18T11:13:42;98389.63;;;-2.81;55.24
46111;BME280;31849;55.992;37.252;2022-11-18T11:18:51;98396.50;;;-2.78;55.06
46111;BME280;31849;55.992;37.252;2022-11-18T11:23:56;98409.91;;;-3.08;55.53
46111;BME280;31849;55.992;37.252;2022-11-18T11:29:05;98411.75;;;-3.28;55.48
46111;BME280;31849;55.992;37.252;2022-11-18T11:34:17;98423.22;;;-3.40;56.06
46111;BME280;31849;55.992;37.252;2022-11-18T11:39:49;98419.84;;;-3.39;55.79
46111;BME280;31849;55.992;37.252;2022-11-18T11:45:09;98424.50;;;-3.51;56.34
46111;BME280;31849;55.992;37.252;2022-11-18T11:50:24;98432.06;;;-3.53;57.07
46111;BME280;31849;55.992;37.252;2022-11-18T11:55:35;98431.38;;;-3.48;56.70
46111;BME280;31849;55.992;37.252;2022-11-18T12:00:44;98423.91;;;-3.44;56.68
46111;BME280;31849;55.992;37.252;2022-11-18T12:05:51;98440.66;;;-3.49;56.90
46111;BME280;31849;55.992;37.252;2022-11-18T12:10:58;98448.47;;;-3.44;56.93
46111;BME280;31849;55.992;37.252;2022-11-18T12:16:19;98439.91;;;-3.46;56.83
46111;BME280;31849;55.992;37.252;2022-11-18T12:21:55;98442.25;;;-3.53;56.45
46111;BME280;31849;55.992;37.252;2022-11-18T12:27:10;98450.44;;;-3.60;57.24
46111;BME280;31849;55.992;37.252;2022-11-18T12:32:26;98453.31;;;-3.73;56.90
46111;BME280;31849;55.992;37.252;2022-11-18T12:37:44;98463.25;;;-3.79;57.24
46111;BME280;31849;55.992;37.252;2022-11-18T12:42:48;98463.47;;;-3.73;57.41
46111;BME280;31849;55.992;37.252;2022-11-18T12:48:40;98474.03;;;-3.62;57.55
46111;BME280;31849;55.992;37.252;2022-11-18T12:53:44;98481.22;;;-3.75;57.83
46111;BME280;31849;55.992;37.252;2022-11-18T12:58:49;98484.94;;;-3.66;57.34
46111;BME280;31849;55.992;37.252;2022-11-18T13:04:07;98484.94;;;-3.88;57.83
46111;BME280;31849;55.992;37.252;2022-11-18T13:09:14;98486.22;;;-3.99;58.10
46111;BME280;31849;55.992;37.252;2022-11-18T13:14:24;98493.22;;;-3.93;57.93
46111;BME280;31849;55.992;37.252;2022-11-18T13:20:15;98500.44;;;-4.02;58.05
46111;BME280;31849;55.992;37.252;2022-11-18T13:25:24;98502.81;;;-4.07;58.36
46111;BME280;31849;55.992;37.252;2022-11-18T13:30:29;98506.16;;;-4.08;58.47
46111;BME280;31849;55.992;37.252;2022-11-18T13:35:39;98509.84;;;-4.00;58.34
46111;BME280;31849;55.992;37.252;2022-11-18T13:40:44;98518.28;;;-4.01;58.31
46111;BME280;31849;55.992;37.252;2022-11-18T13:46:08;98520.63;;;-4.06;58.35
46111;BME280;31849;55.992;37.252;2022-11-18T13:51:14;98525.16;;;-3.98;58.70
46111;BME280;31849;55.992;37.252;2022-11-18T13:56:20;98522.78;;;-3.94;58.47
46111;BME280;31849;55.992;37.252;2022-11-18T14:01:30;98537.66;;;-4.03;58.79
46111;BME280;31849;55.992;37.252;2022-11-18T14:06:36;98541.97;;;-4.02;58.96
46111;BME280;31849;55.992;37.252;2022-11-18T14:11:41;98538.47;;;-4.04;58.29
46111;BME280;31849;55.992;37.252;2022-11-18T14:16:45;98537.13;;;-3.96;58.15
46111;BME280;31849;55.992;37.252;2022-11-18T14:21:49;98534.47;;;-3.99;58.42
46111;BME280;31849;55.992;37.252;2022-11-18T14:26:53;98533.28;;;-4.07;58.69
46111;BME280;31849;55.992;37.252;2022-11-18T14:32:17;98530.72;;;-4.07;58.54
46111;BME280;31849;55.992;37.252;2022-11-18T14:37:22;98533.97;;;-4.11;58.97
46111;BME280;31849;55.992;37.252;2022-11-18T14:42:25;98534.34;;;-4.23;58.54
46111;BME280;31849;55.992;37.252;2022-11-18T14:47:28;98540.28;;;-4.22;59.38
46111;BME280;31849;55.992;37.252;2022-11-18T14:52:34;98545.28;;;-4.24;59.36
46111;BME280;31849;55.992;37.252;2022-11-18T14:57:37;98550.28;;;-4.26;59.41
46111;BME280;31849;55.992;37.252;2022-11-18T15:02:40;98552.53;;;-4.33;59.34
46111;BME280;31849;55.992;37.252;2022-11-18T15:07:45;98548.84;;;-4.40;59.75
46111;BME280;31849;55.992;37.252;2022-11-18T15:12:49;98554.41;;;-4.49;59.20
46111;BME280;31849;55.992;37.252;2022-11-18T15:17:52;98546.53;;;-4.55;59.48
46111;BME280;31849;55.992;37.252;2022-11-18T15:22:57;98554.28;;;-4.52;59.61
46111;BME280;31849;55.992;37.252;2022-11-18T15:28:00;98551.31;;;-4.42;59.10
46111;BME280;31849;55.992;37.252;2022-11-18T15:33:03;98558.16;;;-4.60;59.56
46111;BME280;31849;55.992;37.252;2022-11-18T15:38:10;98558.16;;;-4.60;59.66
46111;BME280;31849;55.992;37.252;2022-11-18T15:43:13;98558.16;;;-4.60;60.18
46111;BME280;31849;55.992;37.252;2022-11-18T15:48:18;98565.00;;;-4.57;59.63
46111;BME280;31849;55.992;37.252;2022-11-18T15:53:24;98550.63;;;-4.58;60.25
46111;BME280;31849;55.992;37.252;2022-11-18T15:58:27;98575.00;;;-4.41;59.89
46111;BME280;31849;55.992;37.252;2022-11-18T16:03:36;98575.03;;;-4.61;59.97
46111;BME280;31849;55.992;37.252;2022-11-18T16:08:41;98577.81;;;-4.54;59.86
46111;BME280;31849;55.992;37.252;2022-11-18T16:13:45;98583.66;;;-4.57;60.02
46111;BME280;31849;55.992;37.252;2022-11-18T16:18:48;98594.53;;;-4.60;59.89
46111;BME280;31849;55.992;37.252;2022-11-18T16:23:55;98606.69;;;-4.52;59.81
46111;BME280;31849;55.992;37.252;2022-11-18T16:28:59;98616.19;;;-4.48;60.02
46111;BME280;31849;55.992;37.252;2022-11-18T16:34:06;98624.44;;;-4.33;59.60
46111;BME280;31849;55.992;37.252;2022-11-18T16:39:12;98627.50;;;-4.20;60.08
46111;BME280;31849;55.992;37.252;2022-11-18T16:44:17;98633.41;;;-4.21;59.82
46111;BME280;31849;55.992;37.252;2022-11-18T16:49:22;98628.31;;;-4.21;60.29
46111;BME280;31849;55.992;37.252;2022-11-18T16:54:29;98636.06;;;-4.18;59.93
46111;BME280;31849;55.992;37.252;2022-11-18T16:59:36;98641.59;;;-4.27;59.50
46111;BME280;31849;55.992;37.252;2022-11-18T17:04:39;98647.66;;;-4.24;59.98
46111;BME280;31849;55.992;37.252;2022-11-18T17:09:44;98657.41;;;-4.13;59.54
46111;BME280;31849;55.992;37.252;2022-11-18T17:14:48;98662.31;;;-4.18;59.89
46111;BME280;31849;55.992;37.252;2022-11-18T17:19:51;98660.38;;;-4.24;59.74
46111;BME280;31849;55.992;37.252;2022-11-18T17:24:56;98671.66;;;-4.17;60.13
46111;BME280;31849;55.992;37.252;2022-11-18T17:30:07;98674.28;;;-4.15;60.06
46111;BME280;31849;55.992;37.252;2022-11-18T17:35:10;98680.28;;;-4.13;59.46
46111;BME280;31849;55.992;37.252;2022-11-18T17:40:15;98673.75;;;-4.08;59.60
46111;BME280;31849;55.992;37.252;2022-11-18T17:45:19;98682.00;;;-4.12;59.41
46111;BME280;31849;55.992;37.252;2022-11-18T17:50:22;98691.09;;;-4.17;59.96
46111;BME280;31849;55.992;37.252;2022-11-18T17:55:27;98692.69;;;-4.19;60.08
46111;BME280;31849;55.992;37.252;2022-11-18T18:00:30;98696.28;;;-4.14;59.43
46111;BME280;31849;55.992;37.252;2022-11-18T18:05:34;98704.31;;;-4.25;59.44
46111;BME280;31849;55.992;37.252;2022-11-18T18:10:38;98700.91;;;-4.25;59.71
46111;BME280;31849;55.992;37.252;2022-11-18T18:15:43;98710.94;;;-4.28;59.79
46111;BME280;31849;55.992;37.252;2022-11-18T18:20:46;98721.47;;;-4.19;59.41
46111;BME280;31849;55.992;37.252;2022-11-18T18:25:51;98706.13;;;-4.22;59.47
46111;BME280;31849;55.992;37.252;2022-11-18T18:30:57;98718.94;;;-4.19;59.02
46111;BME280;31849;55.992;37.252;2022-11-18T18:36:02;98724.28;;;-4.32;59.32
46111;BME280;31849;55.992;37.252;2022-11-18T18:41:10;98722.31;;;-4.38;59.32
46111;BME280;31849;55.992;37.252;2022-11-18T18:46:15;98727.59;;;-4.53;60.09
46111;BME280;31849;55.992;37.252;2022-11-18T18:51:34;98725.50;;;-4.44;59.81
46111;BME280;31849;55.992;37.252;2022-11-18T18:56:39;98743.19;;;-4.45;59.96
46111;BME280;31849;55.992;37.252;2022-11-18T19:01:43;98746.50;;;-4.46;59.64
46111;BME280;31849;55.992;37.252;2022-11-18T19:06:47;98750.03;;;-4.43;59.81
46111;BME280;31849;55.992;37.252;2022-11-18T19:12:01;98754.81;;;-4.31;60.06
46111;BME280;31849;55.992;37.252;2022-11-18T19:17:21;98753.03;;;-4.33;59.50
46111;BME280;31849;55.992;37.252;2022-11-18T19:22:27;98755.44;;;-4.36;59.91
46111;BME280;31849;55.992;37.252;2022-11-18T19:27:32;98760.69;;;-4.32;60.13
46111;BME280;31849;55.992;37.252;2022-11-18T19:32:41;98768.84;;;-4.39;59.65
46111;BME280;31849;55.992;37.252;2022-11-18T19:37:45;98774.03;;;-4.36;60.09
46111;BME280;31849;55.992;37.252;2022-11-18T19:42:50;98766.72;;;-4.30;60.08
46111;BME280;31849;55.992;37.252;2022-11-18T19:47:55;98762.66;;;-4.44;60.18
46111;BME280;31849;55.992;37.252;2022-11-18T19:52:58;98779.16;;;-4.54;60.37
46111;BME280;31849;55.992;37.252;2022-11-18T19:58:24;98786.91;;;-4.51;60.52
46111;BME280;31849;55.992;37.252;2022-11-18T20:03:28;98788.34;;;-4.56;60.23
46111;BME280;31849;55.992;37.252;2022-11-18T20:08:33;98808.34;;;-4.44;60.25
46111;BME280;31849;55.992;37.252;2022-11-18T20:13:39;98820.03;;;-4.48;59.79
46111;BME280;31849;55.992;37.252;2022-11-18T20:18:43;98823.94;;;-4.54;59.87
46111;BME280;31849;55.992;37.252;2022-11-18T20:23:47;98824.69;;;-4.57;60.18
46111;BME280;31849;55.992;37.252;2022-11-18T20:28:52;98827.72;;;-4.64;59.63
46111;BME280;31849;55.992;37.252;2022-11-18T20:33:59;98828.50;;;-4.83;60.06
46111;BME280;31849;55.992;37.252;2022-11-18T20:39:04;98842.44;;;-4.91;60.11
46111;BME280;31849;55.992;37.252;2022-11-18T20:44:09;98837.63;;;-4.87;60.62
46111;BME280;31849;55.992;37.252;2022-11-18T20:49:12;98828.78;;;-4.95;60.31
46111;BME280;31849;55.992;37.252;2022-11-18T20:54:16;98852.34;;;-5.14;60.85
46111;BME280;31849;55.992;37.252;2022-11-18T20:59:21;98856.41;;;-5.18;60.59
46111;BME280;31849;55.992;37.252;2022-11-18T21:04:25;98858.16;;;-5.33;61.14
46111;BME280;31849;55.992;37.252;2022-11-18T21:09:28;98874.78;;;-5.55;61.33
46111;BME280;31849;55.992;37.252;2022-11-18T21:14:35;98882.88;;;-5.62;61.31
46111;BME280;31849;55.992;37.252;2022-11-18T21:19:38;98882.69;;;-5.81;61.47
46111;BME280;31849;55.992;37.252;2022-11-18T21:24:48;98885.69;;;-6.05;61.67
46111;BME280;31849;55.992;37.252;2022-11-18T21:29:52;98906.06;;;-6.19;62.43
46111;BME280;31849;55.992;37.252;2022-11-18T21:34:56;98926.25;;;-6.50;62.48
46111;BME280;31849;55.992;37.252;2022-11-18T21:40:00;98936.56;;;-6.62;62.54
46111;BME280;31849;55.992;37.252;2022-11-18T21:45:06;98949.81;;;-6.66;62.81
46111;BME280;31849;55.992;37.252;2022-11-18T21:50:10;98953.78;;;-6.69;62.77
46111;BME280;31849;55.992;37.252;2022-11-18T21:55:14;98954.34;;;-6.60;62.14
46111;BME280;31849;55.992;37.252;2022-11-18T22:00:19;98962.69;;;-6.46;62.70
46111;BME280;31849;55.992;37.252;2022-11-18T22:05:23;98967.75;;;-6.46;62.21
46111;BME280;31849;55.992;37.252;2022-11-18T22:10:26;98959.41;;;-6.45;61.69
46111;BME280;31849;55.992;37.252;2022-11-18T22:15:31;98971.06;;;-6.32;62.09
46111;BME280;31849;55.992;37.252;2022-11-18T22:20:56;98979.72;;;-6.29;61.83
46111;BME280;31849;55.992;37.252;2022-11-18T22:26:00;98984.25;;;-6.23;61.99
46111;BME280;31849;55.992;37.252;2022-11-18T22:31:10;98944.66;;;-6.38;61.77
46111;BME280;31849;55.992;37.252;2022-11-18T22:36:15;98984.25;;;-6.23;61.26
46111;BME280;31849;55.992;37.252;2022-11-18T22:41:21;98992.72;;;-6.52;61.96
46111;BME280;31849;55.992;37.252;2022-11-18T22:46:44;98992.22;;;-6.90;62.42
46111;BME280;31849;55.992;37.252;2022-11-18T22:51:47;99000.91;;;-7.00;63.13
46111;BME280;31849;55.992;37.252;2022-11-18T22:56:52;99013.69;;;-7.12;62.75
46111;BME280;31849;55.992;37.252;2022-11-18T23:01:57;99008.94;;;-7.20;63.26
46111;BME280;31849;55.992;37.252;2022-11-18T23:06:59;99016.75;;;-7.31;63.30
46111;BME280;31849;55.992;37.252;2022-11-18T23:12:03;99029.13;;;-7.49;62.95
46111;BME280;31849;55.992;37.252;2022-11-18T23:17:25;99033.53;;;-7.60;63.18
46111;BME280;31849;55.992;37.252;2022-11-18T23:22:29;99040.19;;;-7.60;63.36
46111;BME280;31849;55.992;37.252;2022-11-18T23:27:32;99044.56;;;-7.57;63.39
46111;BME280;31849;55.992;37.252;2022-11-18T23:32:37;99051.66;;;-7.52;63.70
46111;BME280;31849;55.992;37.252;2022-11-18T23:37:40;99058.47;;;-7.51;64.02
46111;BME280;31849;55.992;37.252;2022-11-18T23:42:43;99070.03;;;-7.54;62.97
46111;BME280;31849;55.992;37.252;2022-11-18T23:47:48;99080.31;;;-7.51;63.03
46111;BME280;31849;55.992;37.252;2022-11-18T23:52:51;99085.97;;;-7.55;62.93
46111;BME280;31849;55.992;37.252;2022-11-18T23:57:54;99073.81;;;-7.61;63.21
